• Join FlightAware (Why Join?)
  • Login
  • US Flag 
08:49AM EDT


 

Airport Tracker/Info


-or-


 

Live Flight TrackerFlight Track Log ✈ UAL407 ✈ 05-May-2013 ✈ KLAX - KEWR

Flight Track Log - Related Links

Times and Time Zones

All times are in EDT time to prevent confusion due to time zone crossing. See the UAL407 flight status page for this flight to view local times or setup timezone preferences in your user account.

Time Position Orientation Groundspeed Altitude Reporting Facility
EDT Latitude Longitude Course Direction KTS MPH feet Rate Location/Type
11:44AM 33.9500 -118.3667 73° East 189 217 1,800  Level Southern California TRACON
11:44AM 33.9828 -118.2994 60° Northeast 219 252 4,100 2,220 Climbing Los Angeles Center
11:46AM 34.0219 -118.2289 56° Northeast 240 276 6,300 2,220 Climbing Los Angeles Center
11:47AM 34.3276 -118.0543 32° Northeast  Level FlightAware Approximate
11:47AM 34.0764 -118.1511 50° Northeast 285 328 8,700  Level Los Angeles Center
11:48AM 34.3667 -117.9316 90° East  Level FlightAware Approximate
11:48AM 34.1303 -118.0678 52° Northeast 307 353 11,200  Level Los Angeles Center
11:49AM 34.3985 -117.7895 73° East  Level FlightAware Approximate
11:49AM 34.1975 -117.9867 45° Northeast 340 391 12,800  Level Los Angeles Center
11:50AM 34.2597 -117.8800 55° Northeast 377 434 14,600 1,680 Climbing Los Angeles Center
11:51AM 34.3233 -117.7678 56° Northeast 397 457 16,300 1,380 Climbing Los Angeles Center
11:52AM 34.3944 -117.6325 57° Northeast 437 503 17,500 1,500 Climbing Los Angeles Center
11:53AM 34.4636 -117.5053 57° Northeast 454 522 19,400 1,680 Climbing Los Angeles Center
11:54AM 34.5342 -117.3761 56° Northeast 462 532 21,000 1,560 Climbing Los Angeles Center
11:55AM 34.6200 -117.2167 57° Northeast 471 542 22,700 1,380 Climbing Los Angeles Center
11:56AM 34.6931 -117.0808 57° Northeast 483 556 23,900 1,200 Climbing Los Angeles Center
11:57AM 34.7786 -116.9519 51° Northeast 494 568 25,300 1,080 Climbing Los Angeles Center
11:58AM 34.8697 -116.8286 48° Northeast 495 570 26,200 780 Climbing Los Angeles Center
11:59AM 34.9642 -116.7006 48° Northeast 506 582 27,100 1,200 Climbing Los Angeles Center
12:00PM 35.0950 -116.5211 48° Northeast 508 585 28,900 1,500 Climbing Los Angeles Center
12:01PM 35.1881 -116.3933 48° Northeast 506 582 30,200 1,260 Climbing Los Angeles Center
12:02PM 35.2864 -116.2664 46° Northeast 510 587 31,600 1,140 Climbing Los Angeles Center
12:03PM 35.3761 -116.1381 49° Northeast 503 579 32,600 900 Climbing Los Angeles Center
12:04PM 35.4697 -116.0097 48° Northeast 504 580 33,500 840 Climbing Los Angeles Center
12:05PM 35.5686 -115.8750 48° Northeast 508 585 34,400 720 Climbing Los Angeles Center
12:06PM 35.6631 -115.7453 48° Northeast 510 587 35,000 240 Climbing Los Angeles Center
12:07PM 35.7767 -115.5864 49° Northeast 518 596 35,000  Level Los Angeles Center
12:08PM 35.8717 -115.4528 49° Northeast 522 601 35,000  Level Los Angeles Center
12:09PM 35.9683 -115.3172 49° Northeast 529 609 35,000  Level Los Angeles Center
12:10PM 36.0625 -115.1833 49° Northeast 523 602 35,000  Level Los Angeles Center
12:11PM 36.1406 -115.0311 58° Northeast 527 606 35,000  Level Los Angeles Center
12:12PM 36.2131 -114.8747 60° Northeast 528 608 35,000  Level Los Angeles Center
12:13PM 36.3008 -114.6869 60° Northeast 527 606 35,000  Level Los Angeles Center
12:15PM 36.3731 -114.5308 60° Northeast 525 604 35,000  Level Los Angeles Center
12:16PM 36.4450 -114.3736 60° Northeast 525 604 35,000  Level Los Angeles Center
12:17PM 36.5228 -114.2017 61° Northeast 522 601 35,000  Level Los Angeles Center
12:18PM 36.5944 -114.0450 60° Northeast 522 601 35,000  Level Los Angeles Center
12:19PM 36.6661 -113.8881 60° Northeast 522 601 35,000  Level Los Angeles Center
12:20PM 36.7364 -113.7311 61° Northeast 522 601 35,000  Level Los Angeles Center
12:21PM 36.7931 -113.6053 61° Northeast 522 601 35,000  Level Los Angeles Center
12:22PM 36.8919 -113.3858 61° Northeast 520 598 35,000  Level Los Angeles Center
12:23PM 36.9761 -113.1964 61° Northeast 522 601 35,000  Level Los Angeles Center
12:24PM 37.0458 -113.0397 61° Northeast 520 598 35,000  Level Los Angeles Center
12:25PM 37.1150 -112.8833 61° Northeast 519 597 35,000  Level Los Angeles Center
12:26PM 37.1703 -112.7597 61° Northeast 517 595 35,000  Level Salt Lake Center
12:27PM 37.2381 -112.6033 61° Northeast 517 595 35,000  Level Salt Lake Center
12:27PM 37.2517 -112.5717 62° Northeast 517 595 35,000  Level Los Angeles Center
12:28PM 37.3336 -112.3842 61° Northeast 516 594 35,000  Level Los Angeles Center
12:29PM 37.4017 -112.2283 61° Northeast 514 592 35,000  Level Los Angeles Center
12:30PM 37.4422 -112.1347 61° Northeast 515 593 35,000  Level Salt Lake Center
12:31PM 37.5067 -111.9758 63° Northeast 513 590 35,000  Level Salt Lake Center
12:32PM 37.5603 -111.7703 72° East 518 596 35,000  Level Salt Lake Center
12:33PM 37.5864 -111.6672 72° East 515 593 35,000  Level Denver Center
12:34PM 37.6378 -111.4608 72° East 518 596 35,000  Level Denver Center
12:34PM 37.6472 -111.4272 70° East 517 595 35,000  Level Salt Lake Center
12:35PM 37.6819 -111.2892 72° East 518 596 35,000  Level Denver Center
12:35PM 37.6911 -111.2564 71° East 516 594 35,000  Level Salt Lake Center
12:36PM 37.7253 -111.1172 73° East 518 596 35,000  Level Denver Center
12:37PM 37.7678 -110.9453 73° East 516 594 35,000  Level Denver Center
12:38PM 37.8108 -110.7744 72° East 514 592 35,000  Level Denver Center
12:39PM 37.8517 -110.6036 73° East 510 587 35,000  Level Denver Center
12:40PM 37.8992 -110.4133 72° East 511 588 35,000  Level Denver Center
12:41PM 37.9456 -110.2208 73° East 511 588 35,000  Level Denver Center
12:42PM 37.9861 -110.0569 73° East 509 586 35,000  Level Denver Center
12:43PM 38.0325 -109.8667 73° East 506 582 35,000  Level Denver Center
12:44PM 38.0700 -109.7142 73° East 507 583 35,000  Level Denver Center
12:45PM 38.1167 -109.5228 73° East 509 586 35,000  Level Denver Center
12:46PM 38.1556 -109.3594 73° East 507 583 35,000  Level Denver Center
12:47PM 38.2014 -109.1692 73° East 505 581 35,000  Level Denver Center
12:48PM 38.2403 -109.0028 73° East 511 588 35,000  Level Denver Center
12:49PM 38.2847 -108.8114 73° East 507 583 35,000  Level Denver Center
12:50PM 38.3231 -108.6481 73° East 505 581 35,000  Level Denver Center
12:51PM 38.3681 -108.4567 73° East 506 582 35,000  Level Denver Center
12:52PM 38.4058 -108.2944 73° East 503 579 35,000  Level Denver Center
12:53PM 38.4489 -108.1039 74° East 501 577 35,000  Level Denver Center
12:54PM 38.4856 -107.9400 74° East 503 579 35,000  Level Denver Center
12:55PM 38.5286 -107.7500 74° East 501 577 35,000  Level Denver Center
12:56PM 38.5658 -107.5856 74° East 503 579 35,000  Level Denver Center
12:57PM 38.6078 -107.3942 74° East 503 579 35,000  Level Denver Center
12:59PM 38.6431 -107.2294 75° East 503 579 35,000  Level Denver Center
01:00PM 38.6814 -107.0578 74° East 500 575 35,000  Level Denver Center
01:01PM 38.7192 -106.8833 74° East 508 585 35,000  Level Denver Center
01:02PM 38.7550 -106.7125 75° East 503 579 35,000  Level Denver Center
01:03PM 38.8006 -106.5036 74° East 507 583 35,000  Level Denver Center
01:04PM 38.8464 -106.3328 71° East 510 587 35,000  Level Denver Center
01:05PM 38.9025 -106.1431 69° East 513 590 35,000  Level Denver Center
01:06PM 38.9514 -105.9697 70° East 513 590 35,000  Level Denver Center
01:07PM 39.0025 -105.7961 69° East 513 590 35,000  Level Denver Center
01:08PM 39.0514 -105.6219 70° East 514 592 35,000  Level Denver Center
01:09PM 39.1014 -105.4464 70° East 517 595 35,000  Level Denver Center
01:10PM 39.1533 -105.2714 69° East 521 600 35,000  Level Denver Center
01:11PM 39.2014 -105.0975 70° East 511 588 35,000  Level Denver Center
01:12PM 39.2586 -104.8922 70° East 519 597 35,000  Level Denver Center
01:13PM 39.3053 -104.7183 71° East 514 592 35,000  Level Denver Center
01:14PM 39.3531 -104.5431 71° East 519 597 35,000  Level Denver Center
01:15PM 39.4003 -104.3675 71° East 519 597 35,000  Level Denver Center
01:16PM 39.4481 -104.1897 71° East 524 603 35,000  Level Denver Center
01:17PM 39.5036 -103.9825 71° East 521 600 35,000  Level Denver Center
01:18PM 39.5500 -103.8022 71° East 520 598 35,000  Level Denver Center
01:19PM 39.5972 -103.6236 71° East 519 597 35,000  Level Denver Center
01:20PM 39.6442 -103.4439 71° East 522 601 35,000  Level Denver Center
01:21PM 39.6897 -103.2633 72° East 523 602 35,000  Level Denver Center
01:22PM 39.7344 -103.0808 72° East 525 604 35,000  Level Denver Center
01:23PM 39.7792 -102.8994 72° East 523 602 35,000  Level Denver Center
01:24PM 39.8308 -102.6978 71° East 520 598 35,000  Level Denver Center
01:25PM 39.8725 -102.5261 72° East 519 597 35,000  Level Denver Center
01:26PM 39.9203 -102.3256 73° East 520 598 35,000  Level Denver Center
01:27PM 39.9633 -102.1544 72° East 520 598 35,000  Level Denver Center
01:29PM 40.0072 -101.9531 74° East 518 596 35,000  Level Denver Center
01:30PM 40.0436 -101.7772 75° East 524 603 35,000  Level Denver Center
01:31PM 40.0867 -101.5742 74° East 522 601 35,000  Level Denver Center
01:32PM 40.1231 -101.3981 75° East 525 604 35,000  Level Denver Center
01:33PM 40.1653 -101.1925 75° East 526 605 35,000  Level Denver Center
01:34PM 40.2008 -101.0192 75° East 521 600 35,000  Level Denver Center
01:35PM 40.2417 -100.8156 75° East 521 600 35,000  Level Denver Center
01:36PM 40.2764 -100.6431 75° East 515 593 35,000  Level Denver Center
01:37PM 40.3161 -100.4433 75° East 512 589 35,000  Level Denver Center
01:38PM 40.3506 -100.2706 75° East 514 592 35,000  Level Denver Center
01:39PM 40.3894 -100.0714 76° East 510 587 35,000  Level Denver Center
01:40PM 40.4222 -99.8994 76° East 510 587 35,000  Level Denver Center
01:41PM 40.4556 -99.7236 76° East 509 586 35,000  Level Denver Center
01:42PM 40.4967 -99.5083 76° East 508 585 35,000  Level Denver Center
01:43PM 40.5303 -99.3303 76° East 505 581 35,000  Level Denver Center
01:44PM 40.5636 -99.1517 76° East 505 581 35,000  Level Denver Center
01:44PM 40.5697 -99.1164 77° East 507 583 35,000  Level Minneapolis Center
01:45PM 40.6094 -98.9047 76° East 502 578 35,000  Level Minneapolis Center
01:46PM 40.6394 -98.7292 77° East 497 572 35,000  Level Minneapolis Center
01:47PM 40.6711 -98.5567 76° East 492 566 35,000  Level Minneapolis Center
01:48PM 40.6958 -98.4203 77° East 487 560 35,000  Level Minneapolis Center
01:49PM 40.7317 -98.2167 77° East 479 551 35,000  Level Minneapolis Center
01:50PM 40.7617 -98.0475 77° East 478 550 35,000  Level Minneapolis Center
01:52PM 40.7969 -97.8442 77° East 476 548 35,000  Level Minneapolis Center
01:53PM 40.8264 -97.6747 77° East 476 548 35,000  Level Minneapolis Center
01:54PM 40.8550 -97.5025 78° East 478 550 35,000  Level Minneapolis Center
01:55PM 40.8833 -97.3361 77° East 475 547 35,000  Level Minneapolis Center
01:56PM 40.9056 -97.2025 78° East 471 542 35,000  Level Minneapolis Center
01:57PM 40.9383 -97.0014 78° East 469 540 35,000  Level Minneapolis Center
01:58PM 40.9711 -96.7989 78° East 467 537 35,000  Level Minneapolis Center
01:59PM 40.9972 -96.6336 78° East 466 536 35,000  Level Minneapolis Center
02:00PM 41.0250 -96.4658 78° East 466 536 35,000  Level Minneapolis Center
02:01PM 41.0514 -96.2989 78° East 467 537 35,000  Level Minneapolis Center
02:02PM 41.0819 -96.1025 78° East 460 529 35,000  Level Minneapolis Center
02:03PM 41.1117 -95.9056 79° East 461 531 35,000  Level Minneapolis Center
02:04PM 41.1342 -95.7625 78° East 462 532 35,000  Level Minneapolis Center
02:05PM 41.1617 -95.5767 79° East 460 529 35,000  Level Minneapolis Center
02:06PM 41.1872 -95.4100 78° East 462 532 35,000  Level Minneapolis Center
02:07PM 41.2125 -95.2436 79° East 463 533 35,000  Level Minneapolis Center
02:08PM 41.2364 -95.0767 79° East 462 532 35,000  Level Minneapolis Center
02:09PM 41.2644 -94.8786 79° East 458 527 35,000  Level Minneapolis Center
02:10PM 41.2889 -94.7114 79° East 460 529 35,000  Level Minneapolis Center
02:11PM 41.3117 -94.5453 80° East 459 528 35,000  Level Minneapolis Center
02:12PM 41.3367 -94.3806 79° East 456 525 35,000  Level Minneapolis Center
02:13PM 41.3589 -94.2075 80° East 458 527 35,000  Level Minneapolis Center
02:14PM 41.3814 -94.0419 80° East 458 527 35,000  Level Minneapolis Center
02:15PM 41.4039 -93.8764 80° East 457 526 35,000  Level Minneapolis Center
02:17PM 41.4333 -93.6758 79° East 460 529 35,000  Level Minneapolis Center
02:18PM 41.4508 -93.5111 82° East 455 524 35,000  Level Minneapolis Center
02:19PM 41.4650 -93.3458 83° East 454 522 35,000  Level Minneapolis Center
02:20PM 41.4803 -93.1828 83° East 450 518 35,000  Level Minneapolis Center
02:21PM 41.4964 -93.0192 82° East 448 516 35,000  Level Minneapolis Center
02:22PM 41.5147 -92.8214 83° East 448 516 35,000  Level Minneapolis Center
02:23PM 41.5300 -92.6558 83° East 451 519 35,000  Level Minneapolis Center
02:23PM 41.5381 -92.5600 84° East 453 521 35,000  Level Chicago Center
02:24PM 41.5522 -92.3986 83° East 446 513 35,000  Level Chicago Center
02:25PM 41.5669 -92.2386 83° East 441 507 35,000  Level Chicago Center
02:26PM 41.5833 -92.0433 84° East 444 511 35,100 300 Climbing Chicago Center
02:27PM 41.5969 -91.8839 83° East 440 506 35,700 660 Climbing Chicago Center
02:29PM 41.6106 -91.7250 83° East 438 504 36,500 600 Climbing Chicago Center
02:30PM 41.6231 -91.5694 84° East 431 496 37,000 240 Climbing Chicago Center
02:31PM 41.6353 -91.4094 84° East 435 501 37,000  Level Chicago Center
02:32PM 41.6514 -91.2147 84° East 444 511 37,000  Level Chicago Center
02:33PM 41.6631 -91.0547 84° East 439 505 37,000  Level Chicago Center
02:34PM 41.6742 -90.8967 85° East 435 501 37,000  Level Chicago Center
02:35PM 41.6853 -90.7375 85° East 434 499 37,000  Level Chicago Center
02:36PM 41.6994 -90.5544 84° East 432 497 37,000  Level Chicago Center
02:37PM 41.7111 -90.3919 84° East 436 502 37,000  Level Chicago Center
02:38PM 41.7222 -90.2328 85° East 431 496 37,000  Level Chicago Center
02:39PM 41.7342 -90.0706 84° East 434 499 37,000  Level Chicago Center
02:40PM 41.7442 -89.9092 85° East 434 499 37,000  Level Chicago Center
02:41PM 41.7544 -89.7469 85° East 435 501 37,000  Level Chicago Center
02:42PM 41.7667 -89.5539 85° East 432 497 37,000  Level Chicago Center
02:43PM 41.7761 -89.4064 85° East 437 503 37,000  Level Chicago Center
02:44PM 41.7856 -89.2453 85° East 437 503 37,000  Level Chicago Center
02:45PM 41.7953 -89.0514 86° East 437 503 37,000  Level Chicago Center
02:46PM 41.8050 -88.8883 85° East 439 505 37,000  Level Chicago Center
02:47PM 41.8131 -88.7264 86° East 439 505 37,000  Level Chicago Center
02:48PM 41.8228 -88.5625 85° East 440 506 37,000  Level Chicago Center
02:49PM 41.8319 -88.3989 86° East 440 506 37,000  Level Chicago Center
02:50PM 41.8406 -88.2347 86° East 442 509 37,000  Level Chicago Center
02:51PM 41.8500 -88.0372 86° East 440 506 37,000  Level Chicago Center
02:52PM 41.8569 -87.8719 87° East 442 509 37,000  Level Chicago Center
02:53PM 41.8656 -87.7047 86° East 447 514 37,000  Level Chicago Center
02:54PM 41.8736 -87.5386 86° East 447 514 37,000  Level Chicago Center
02:55PM 41.8800 -87.3711 87° East 451 519 37,000  Level Chicago Center
02:56PM 41.8867 -87.2061 87° East 447 514 37,000  Level Chicago Center
02:57PM 41.8942 -87.0075 87° East 447 514 37,000  Level Chicago Center
02:59PM 41.9006 -86.8428 87° East 446 513 37,000  Level Chicago Center
03:00PM 41.9067 -86.6833 87° East 447 514 37,000  Level Chicago Center
03:01PM 41.9131 -86.5169 87° East 448 516 37,000  Level Chicago Center
03:02PM 41.9189 -86.3489 87° East 450 518 37,000  Level Chicago Center
03:03PM 41.9258 -86.1456 87° East 455 524 37,000  Level Chicago Center
03:04PM 41.9306 -85.9783 88° East 449 517 37,000  Level Chicago Center
03:05PM 41.9358 -85.8156 87° East 441 507 37,000  Level Chicago Center
03:06PM 41.9406 -85.6511 88° East 438 504 37,000  Level Chicago Center
03:07PM 41.9447 -85.4858 88° East 439 505 37,000  Level Chicago Center
03:08PM 41.9494 -85.3194 88° East 440 506 37,000  Level Chicago Center
03:09PM 41.9514 -85.1531 89° East 441 507 37,000  Level Chicago Center
03:09PM 41.9522 -85.0483 89° East 446 513 37,000  Level Cleveland Center
03:10PM 41.9522 -84.8833 90° East 441 507 37,000  Level Cleveland Center
03:11PM 41.9500 -84.7183 91° East 441 507 37,000  Level Cleveland Center
03:12PM 41.9497 -84.5508 90° East 441 507 37,000  Level Cleveland Center
03:13PM 41.9469 -84.3831 91° East 441 507 37,000  Level Cleveland Center
03:14PM 41.9414 -84.2375 93° East 441 507 37,000  Level Cleveland Center
03:15PM 41.9403 -84.0672 90° East 446 513 37,000  Level Cleveland Center
03:16PM 41.9369 -83.8994 91° East 446 513 37,000  Level Cleveland Center
03:17PM 41.9356 -83.7319 91° East 446 513 37,000  Level Cleveland Center
03:18PM 41.9319 -83.5531 91° East 438 504 37,000  Level Cleveland Center
03:19PM 41.9319 -83.3911 90° East 438 504 37,000  Level Cleveland Center
03:20PM 41.9317 -83.2236 90° East 438 504 37,000  Level Cleveland Center
03:21PM 41.9308 -83.0783 90° East 438 504 37,000  Level Cleveland Center
03:22PM 41.9278 -82.9192 91° East 438 504 37,000  Level Cleveland Center
03:23PM 41.9289 -82.7603 89° East 438 504 37,000  Level Cleveland Center
03:24PM 41.9233 -82.6008 93° East 432 497 37,000  Level Cleveland Center
03:25PM 41.9244 -82.4222 89° East 432 497 37,000  Level Cleveland Center
03:26PM 41.9206 -82.2603 92° East 432 497 37,000  Level Cleveland Center
03:27PM 41.9228 -82.1014 89° East 432 497 37,000  Level Cleveland Center
03:28PM 41.9186 -81.9336 92° East 432 497 37,000  Level Cleveland Center
03:29PM 41.9119 -81.7744 93° East 432 497 37,000  Level Cleveland Center
03:31PM 41.8883 -81.5714 99° East  Level FlightAware Approximate
03:31PM 41.8836 -81.4533 99° East 432 497 37,000  Level Cleveland Center
03:32PM 41.8703 -81.2942 96° East 425 489 37,000  Level Cleveland Center
03:33PM 41.8544 -81.1378 98° East 425 489 37,000  Level Cleveland Center
03:34PM 41.8403 -80.9956 98° East 425 489 37,000  Level Cleveland Center
03:35PM 41.8242 -80.8394 98° East 425 489 37,000  Level Cleveland Center
03:36PM 41.8097 -80.6806 97° East 425 489 37,000  Level Cleveland Center
03:37PM 41.7933 -80.5219 98° East 425 489 37,000  Level Cleveland Center
03:38PM 41.7764 -80.3631 98° East 425 489 37,000  Level Cleveland Center
03:39PM 41.7572 -80.1878 98° East 430 495 37,000  Level Cleveland Center
03:40PM 41.7419 -80.0294 97° East 430 495 37,000  Level Cleveland Center
03:41PM 41.7264 -79.8736 98° East 425 489 37,000  Level Cleveland Center
03:42PM 41.7108 -79.7181 98° East 425 489 37,000  Level Cleveland Center
03:43PM 41.6950 -79.5764 98° East 432 497 37,000  Level Cleveland Center
03:44PM 41.6789 -79.4156 98° East 426 490 37,000  Level Cleveland Center
03:45PM 41.6917 -79.2567 84° East 426 490 37,000  Level Cleveland Center
03:46PM 41.7400 -79.1056 67° East 420 483 37,000  Level Cleveland Center
03:47PM 41.7650 -78.9489 78° East 425 489 37,000 -480 Level Cleveland Center
03:48PM 41.7314 -78.7969 106° East 419 482 36,100 -1,020 Descending Cleveland Center
03:49PM 41.6894 -78.6450 110° East 419 482 35,000 -600 Descending Cleveland Center
03:50PM 41.6492 -78.4961 110° East 425 489 35,000  Level Cleveland Center
03:51PM 41.6089 -78.3419 109° East 425 489 35,000 -480 Level Cleveland Center
03:52PM 41.5639 -78.1683 109° East 423 487 34,000 -1,680 Descending New York Center
03:53PM 41.5231 -78.0172 110° East 423 487 31,600 -1,560 Descending New York Center
03:54PM 41.4950 -77.8617 103° East 423 487 31,000 -300 Descending New York Center
03:55PM 41.4733 -77.6986 100° East 429 494 31,000 -240 Level New York Center
03:56PM 41.4533 -77.5417 100° East 434 499 30,600 -720 Descending New York Center
03:57PM 41.4333 -77.4178 102° East 434 499 29,700 -1,500 Descending New York Center
03:58PM 41.4092 -77.2522 101° East 426 490 27,700 -1,380 Descending New York Center
03:59PM 41.3875 -77.1089 101° East 409 471 27,000 -360 Descending New York Center
04:00PM 41.3661 -76.9658 101° East 404 465 27,000  Level New York Center
04:01PM 41.3431 -76.8036 101° East 404 465 27,000  Level New York Center
04:02PM 41.3047 -76.6536 109° East 404 465 27,000 -900 Level New York Center
04:03PM 41.2642 -76.5039 110° East 421 484 25,200 -2,160 Descending New York Center
04:04PM 41.2214 -76.3542 111° Southeast 428 493 22,800 -2,280 Descending New York Center
04:05PM 41.1864 -76.2133 108° East 416 479 20,700 -2,160 Descending New York Center
04:06PM 41.1561 -76.0978 109° East 389 448 18,500 -2,340 Descending New York Center
04:07PM 41.1167 -75.9569 110° East 370 426 16,000 -2,280 Descending New York Center
04:08PM 41.0844 -75.8333 109° East 365 420 14,000 -1,500 Descending New York Center
04:09PM 41.0556 -75.7294 110° East 344 396 13,100 -540 Descending New York Center
04:10PM 41.0264 -75.6256 110° East 316 364 13,000 -240 Descending New York Center
04:11PM 40.9956 -75.5161 110° East 297 342 12,700 -720 Descending New York Center
04:12PM 40.9681 -75.4181 110° East 291 335 11,700 -960 Descending New York Center
04:13PM 40.9386 -75.3172 111° Southeast 291 335 10,800 -900 Descending New York Center
04:14PM 40.9150 -75.2303 110° East 286 329 9,900 -960 Descending New York Center
04:15PM 40.8872 -75.1325 111° Southeast 286 329 8,900 -1,080 Descending New York Center
04:16PM 40.8597 -75.0319 110° East 275 316 7,800 -960 Descending New York Center
04:17PM 40.8339 -74.9397 110° East 275 316 7,000 -660 Descending New York Center
04:18PM 40.7994 -74.8528 118° Southeast 275 316 6,500 -540 Descending New York Center
04:19PM 40.7708 -74.7744 116° Southeast 270 311 6,000 -300 Descending New York Center
04:20PM 40.7783 -74.6761 84° East 244 281 6,000 -60 Level New York Center
04:21PM 40.8319 -74.6272 35° Northeast 224 258 5,900 -360 Descending New York Center
04:22PM 40.8667 -74.5833 44° Northeast 268 308 5,500 -720 Descending New York TRACON
04:22PM 40.8764 -74.5417 73° East 248 285 5,200 -360 Descending New York Center
04:23PM 40.8997 -74.4636 68° East 248 285 5,000 -120 Descending New York Center
04:24PM 40.9297 -74.3689 67° East 248 285 5,000  Level New York Center
04:25PM 40.9500 -74.3167 63° Northeast 253 291 5,000 -300 Level New York TRACON
04:26PM 40.9333 -74.2333 105° East 264 304 4,600 -540 Descending New York TRACON
04:27PM 40.9000 -74.1667 123° Southeast 256 295 4,000 -600 Descending New York TRACON